createdAt,value
2022-08-23T00:01:14.945Z,20.78
2022-08-23T00:07:17.289Z,20.70
2022-08-23T00:13:19.256Z,21.05
2022-08-23T00:19:23.055Z,20.90
2022-08-23T00:25:25.153Z,20.92
2022-08-23T00:31:27.179Z,20.73
2022-08-23T00:37:32.382Z,20.51
2022-08-23T00:44:00.149Z,20.50
2022-08-23T00:50:36.678Z,20.38
2022-08-23T00:56:40.369Z,20.37
2022-08-23T01:02:44.988Z,20.32
2022-08-23T01:08:54.571Z,20.12
2022-08-23T01:15:09.593Z,20.20
2022-08-23T01:21:53.146Z,20.16
2022-08-23T01:27:57.514Z,19.95
2022-08-23T01:34:08.085Z,19.84
2022-08-23T01:40:10.863Z,19.85
2022-08-23T01:46:20.590Z,19.70
2022-08-23T01:52:22.561Z,19.68
2022-08-23T01:58:24.942Z,19.68
2022-08-23T02:04:27.862Z,19.14
2022-08-23T02:10:29.870Z,18.99
2022-08-23T02:16:39.599Z,18.70
2022-08-23T02:22:43.808Z,18.59
2022-08-23T02:28:46.490Z,18.82
2022-08-23T02:34:51.143Z,18.38
2022-08-23T02:41:07.515Z,18.36
2022-08-23T02:47:11.899Z,18.46
2022-08-23T02:53:14.201Z,18.16
2022-08-23T02:59:16.253Z,18.13
2022-08-23T03:05:18.503Z,18.06
2022-08-23T03:11:23.339Z,18.12
2022-08-23T03:17:25.403Z,18.37
2022-08-23T03:23:27.756Z,18.31
2022-08-23T03:29:29.809Z,18.23
2022-08-23T03:35:31.909Z,18.25
2022-08-23T03:41:34.270Z,18.31
2022-08-23T03:47:36.363Z,18.28
2022-08-23T03:53:38.349Z,18.14
2022-08-23T03:59:42.600Z,18.29
2022-08-23T04:05:44.878Z,18.07
2022-08-23T04:11:46.837Z,17.76
2022-08-23T04:17:48.904Z,18.05
2022-08-23T04:23:52.751Z,17.81
2022-08-23T04:29:55.130Z,17.57
2022-08-23T04:35:57.557Z,17.62
2022-08-23T04:42:18.272Z,17.71
2022-08-23T04:48:20.231Z,17.91
2022-08-23T04:54:23.111Z,18.04
2022-08-23T05:00:28.208Z,18.15
2022-08-23T05:06:31.499Z,18.61
2022-08-23T05:12:34.366Z,18.64
2022-08-23T05:18:36.634Z,18.70
2022-08-23T05:24:38.646Z,18.91
2022-08-23T05:30:40.798Z,19.24
2022-08-23T05:36:55.933Z,19.51
2022-08-23T05:42:58.297Z,19.71
2022-08-23T05:49:00.328Z,19.86
2022-08-23T05:55:02.798Z,20.02
2022-08-23T06:01:05.097Z,20.35
2022-08-23T06:07:07.233Z,20.62
2022-08-23T06:13:09.228Z,20.90
2022-08-23T06:19:11.904Z,21.25
2022-08-23T06:25:13.886Z,21.61
2022-08-23T06:31:36.660Z,21.63
2022-08-23T06:37:39.381Z,22.00
2022-08-23T06:43:41.466Z,21.76
2022-08-23T06:49:51.095Z,22.31
2022-08-23T06:56:00.478Z,24.26
2022-08-23T07:02:06.609Z,27.18
2022-08-23T07:08:08.623Z,26.02
2022-08-23T07:14:16.271Z,25.15
2022-08-23T07:20:18.353Z,24.77
2022-08-23T07:26:21.527Z,24.60
2022-08-23T07:32:23.527Z,24.61
2022-08-23T07:38:25.533Z,24.86
2022-08-23T07:44:34.285Z,24.86
2022-08-23T07:50:36.283Z,25.10
2022-08-23T07:56:38.676Z,25.28
2022-08-23T08:02:41.215Z,25.83
2022-08-23T08:08:44.557Z,25.89
2022-08-23T08:14:48.438Z,26.41
2022-08-23T08:20:51.276Z,26.63
2022-08-23T08:26:53.385Z,27.18
2022-08-23T08:32:55.587Z,27.55
2022-08-23T08:39:00.781Z,27.22
2022-08-23T08:45:15.020Z,27.72
2022-08-23T08:51:45.367Z,27.75
2022-08-23T08:57:49.711Z,28.25
2022-08-23T09:03:52.526Z,28.73
2022-08-23T09:10:42.712Z,29.17
2022-08-23T09:16:57.592Z,29.42
2022-08-23T09:23:18.969Z,29.64
2022-08-23T09:29:33.000Z,30.20
2022-08-23T09:35:34.980Z,30.45
2022-08-23T09:41:42.148Z,30.74
2022-08-23T09:47:44.981Z,31.16
2022-08-23T09:53:51.700Z,31.50
2022-08-23T09:59:56.432Z,31.68
2022-08-23T10:06:01.559Z,32.37
2022-08-23T10:12:03.948Z,33.39
2022-08-23T10:18:51.329Z,32.90
2022-08-23T10:25:08.845Z,33.96
2022-08-23T10:31:31.402Z,34.70
2022-08-23T10:38:02.108Z,34.59
2022-08-23T10:44:46.420Z,36.70
2022-08-23T10:51:22.591Z,37.15
2022-08-23T10:57:34.189Z,36.52
2022-08-23T11:03:45.127Z,36.49
2022-08-23T11:10:05.830Z,37.70
2022-08-23T11:16:30.177Z,38.84
2022-08-23T11:22:54.538Z,40.39
2022-08-23T11:29:10.796Z,42.57
2022-08-23T11:35:43.243Z,41.28
2022-08-23T11:41:55.282Z,42.46
2022-08-23T11:48:21.907Z,43.36
2022-08-23T11:55:02.383Z,44.79
2022-08-23T12:01:13.121Z,45.09
2022-08-23T12:07:31.278Z,43.85
2022-08-23T12:14:01.618Z,44.57
2022-08-23T12:20:17.219Z,44.00
2022-08-23T12:26:47.307Z,44.00
2022-08-23T12:33:04.746Z,42.30
2022-08-23T12:39:40.230Z,42.58
2022-08-23T12:45:49.563Z,42.87
2022-08-23T12:51:54.785Z,43.61
2022-08-23T12:57:58.161Z,42.78
2022-08-23T13:04:12.818Z,41.52
2022-08-23T13:10:15.336Z,43.49
2022-08-23T13:16:38.450Z,42.41
2022-08-23T13:22:58.466Z,43.88
2022-08-23T13:29:10.043Z,42.02
2022-08-23T13:35:43.573Z,43.62
2022-08-23T13:41:46.644Z,44.93
2022-08-23T13:47:55.916Z,45.45
2022-08-23T13:54:03.734Z,44.32
2022-08-23T14:00:10.833Z,43.54
2022-08-23T14:06:13.637Z,45.14
2022-08-23T14:12:21.270Z,43.47
2022-08-23T14:18:23.504Z,43.38
2022-08-23T14:24:27.146Z,43.85
2022-08-23T14:30:34.264Z,43.28
2022-08-23T14:36:36.280Z,44.19
2022-08-23T14:42:38.341Z,43.87
2022-08-23T14:48:40.539Z,44.93
2022-08-23T14:54:43.232Z,44.67
2022-08-23T15:00:45.639Z,43.61
2022-08-23T15:07:14.139Z,41.44
2022-08-23T15:13:26.986Z,41.01
2022-08-23T15:19:30.730Z,39.91
2022-08-23T15:25:36.313Z,40.85
2022-08-23T15:31:38.343Z,40.84
2022-08-23T15:37:40.610Z,41.00
2022-08-23T15:43:45.962Z,39.92
2022-08-23T15:49:48.750Z,40.28
2022-08-23T15:55:52.015Z,42.07
2022-08-23T16:01:54.057Z,42.55
2022-08-23T16:07:58.025Z,42.42
2022-08-23T16:14:01.683Z,42.84
2022-08-23T16:20:06.402Z,43.11
2022-08-23T16:26:15.112Z,42.45
2022-08-23T16:32:17.798Z,43.42
2022-08-23T16:38:19.803Z,43.57
2022-08-23T16:44:21.902Z,43.14
2022-08-23T16:50:24.149Z,42.51
2022-08-23T16:56:26.121Z,42.69
2022-08-23T17:02:34.856Z,42.81
2022-08-23T17:08:37.446Z,42.06
2022-08-23T17:14:39.528Z,40.71
2022-08-23T17:20:42.077Z,39.53
2022-08-23T17:26:44.158Z,38.65
2022-08-23T17:32:50.483Z,37.37
2022-08-23T17:38:52.541Z,36.32
2022-08-23T17:44:54.551Z,35.44
2022-08-23T17:50:56.516Z,34.32
2022-08-23T17:57:00.652Z,33.26
2022-08-23T18:03:03.430Z,31.75
2022-08-23T18:09:06.945Z,30.82
2022-08-23T18:15:10.642Z,29.76
2022-08-23T18:21:13.037Z,28.56
2022-08-23T18:27:33.876Z,27.76
2022-08-23T18:33:38.452Z,27.09
2022-08-23T18:39:49.671Z,26.65
2022-08-23T18:45:55.219Z,26.39
2022-08-23T18:51:57.329Z,26.15
2022-08-23T18:57:59.610Z,25.75
2022-08-23T19:04:04.346Z,25.33
2022-08-23T19:10:07.144Z,25.20
2022-08-23T19:16:13.316Z,24.80
2022-08-23T19:22:15.420Z,24.62
2022-08-23T19:28:19.639Z,24.40
2022-08-23T19:34:22.859Z,24.29
2022-08-23T19:40:25.162Z,24.42
2022-08-23T19:46:27.266Z,24.07
2022-08-23T19:52:29.324Z,24.17
2022-08-23T19:58:31.634Z,24.20
2022-08-23T20:04:34.665Z,23.82
2022-08-23T20:10:36.644Z,23.61
2022-08-23T20:16:41.046Z,23.63
2022-08-23T20:23:02.675Z,23.40
2022-08-23T20:29:05.534Z,23.31
2022-08-23T20:35:11.231Z,23.15
2022-08-23T20:41:16.828Z,23.02
2022-08-23T20:47:19.325Z,22.90
2022-08-23T20:53:21.366Z,22.85
2022-08-23T20:59:24.680Z,22.74
2022-08-23T21:05:26.785Z,22.69
2022-08-23T21:11:29.837Z,22.50
2022-08-23T21:17:31.899Z,22.48
2022-08-23T21:23:35.307Z,22.41
2022-08-23T21:29:38.600Z,22.21
2022-08-23T21:35:40.600Z,22.20
2022-08-23T21:41:45.778Z,22.04
2022-08-23T21:47:47.904Z,22.00
2022-08-23T21:53:50.263Z,21.94
2022-08-23T21:59:53.173Z,21.78
2022-08-23T22:05:55.135Z,21.52
2022-08-23T22:11:58.021Z,21.28
2022-08-23T22:18:01.655Z,21.16
2022-08-23T22:24:05.476Z,21.07
2022-08-23T22:30:08.413Z,20.82
2022-08-23T22:36:20.418Z,20.81
2022-08-23T22:42:22.407Z,20.75
2022-08-23T22:48:25.946Z,20.50
2022-08-23T22:54:27.931Z,20.42
2022-08-23T23:00:29.900Z,20.33
2022-08-23T23:06:33.693Z,20.40
2022-08-23T23:12:35.685Z,20.09
2022-08-23T23:18:40.211Z,20.28
2022-08-23T23:24:42.291Z,20.06
2022-08-23T23:30:46.795Z,19.75
2022-08-23T23:36:48.836Z,19.55
2022-08-23T23:42:50.895Z,19.51
2022-08-23T23:48:53.244Z,19.44
2022-08-23T23:54:55.261Z,19.40
